This is the latest recevied weather packets stored in our database for station/object AD7ZD. If no packets are shown the sender has not sent any weather packets the latest 10 day(s).
| Time | Temp. | Humidity | Pressure | Rain* | Wind** | Luminosity | Snow |
|---|---|---|---|---|---|---|---|
| 1778066839 | 8.33° C | 82% | 1014.9 hPa | 0 mm | - | 0 W/m² | - |
| 1778066537 | 8.89° C | 80% | 1014.7 hPa | 0 mm | - | 0 W/m² | - |
| 1778066234 | 8.89° C | 80% | 1014.5 hPa | 0 mm | - | 0 W/m² | - |
| 1778065933 | 8.33° C | 81% | 1014.5 hPa | 0 mm | - | 0 W/m² | - |
| 1778065629 | 8.89° C | 82% | 1014.6 hPa | 0 mm | - | 0 W/m² | - |
| 1778065327 | 8.33° C | 82% | 1014.6 hPa | 0 mm | - | 0 W/m² | - |
| 1778065023 | 8.89° C | 80% | 1014.5 hPa | 0 mm | - | 0 W/m² | - |
| 1778064720 | 8.89° C | 80% | 1014.5 hPa | 0 mm | - | 0 W/m² | - |
| 1778064418 | 8.89° C | 80% | 1014.4 hPa | 0 mm | - | 0 W/m² | - |
| 1778064116 | 9.44° C | 78% | 1014.4 hPa | 0 mm | - | 0 W/m² | - |
| 1778063813 | 9.44° C | 77% | 1014.4 hPa | 0 mm | - | 0 W/m² | - |
| 1778063509 | 10° C | 76% | 1014.4 hPa | 0 mm | - | 0 W/m² | - |
| 1778063208 | 10° C | 75% | 1014.1 hPa | 0 mm | - | 0 W/m² | - |
| 1778062905 | 10° C | 76% | 1014.3 hPa | 0 mm | - | 0 W/m² | - |
| 1778062601 | 10° C | 77% | 1014.2 hPa | 0 mm | - | 0 W/m² | - |
| 1778062298 | 10° C | 77% | 1013.9 hPa | 0 mm | - | 0 W/m² | - |
| 1778061997 | 10° C | 77% | 1013.9 hPa | 0 mm | - | 0 W/m² | - |
| 1778061694 | 10° C | 77% | 1013.9 hPa | 0 mm | - | 0 W/m² | - |
| 1778061393 | 10° C | 78% | 1013.9 hPa | 0 mm | - | 0 W/m² | - |
| 1778061089 | 10° C | 76% | 1013.7 hPa | 0 mm | - | 0 W/m² | - |
| 1778060787 | 11.67° C | 68% | 1013.8 hPa | 0 mm | - | 0 W/m² | - |
| 1778060484 | 12.22° C | 65% | 1013.7 hPa | 0 mm | - | 0 W/m² | - |
| 1778060183 | 12.22° C | 66% | 1013.8 hPa | 0 mm | - | 0 W/m² | - |
| 1778059879 | 12.22° C | 67% | 1013.4 hPa | 0 mm | - | 0 W/m² | - |
| 1778059577 | 11.67° C | 70% | 1013.6 hPa | 0 mm | - | 0 W/m² | - |
* Rain latest hour (hover to see other rain measurements)
** Current wind speed in m/s (hover to see current wind gust speed)